createdAt,value
2022-09-26T00:02:58.733Z,99.90
2022-09-26T00:07:42.237Z,99.90
2022-09-26T00:12:27.096Z,99.90
2022-09-26T00:17:12.001Z,99.90
2022-09-26T00:21:55.496Z,99.90
2022-09-26T00:26:39.512Z,99.90
2022-09-26T00:31:26.927Z,99.90
2022-09-26T00:36:10.925Z,99.90
2022-09-26T00:40:54.376Z,99.90
2022-09-26T00:45:37.901Z,99.90
2022-09-26T00:50:26.493Z,99.90
2022-09-26T00:55:14.358Z,99.90
2022-09-26T01:00:01.644Z,99.90
2022-09-26T01:04:46.966Z,99.90
2022-09-26T01:09:33.350Z,99.90
2022-09-26T01:14:17.063Z,99.90
2022-09-26T01:19:01.180Z,99.90
2022-09-26T01:24:13.789Z,99.90
2022-09-26T01:29:19.394Z,99.90
2022-09-26T01:34:14.375Z,99.90
2022-09-26T01:39:09.532Z,99.90
2022-09-26T01:44:01.191Z,99.90
2022-09-26T01:48:48.735Z,99.90
2022-09-26T01:53:41.498Z,99.90
2022-09-26T01:58:29.535Z,99.90
2022-09-26T02:03:16.871Z,99.90
2022-09-26T02:08:04.910Z,99.90
2022-09-26T02:12:56.216Z,99.90
2022-09-26T02:17:43.077Z,99.90
2022-09-26T02:22:29.184Z,99.90
2022-09-26T02:27:12.538Z,99.90
2022-09-26T02:32:03.203Z,99.90
2022-09-26T02:36:46.863Z,99.90
2022-09-26T02:41:38.752Z,99.90
2022-09-26T02:46:51.585Z,99.90
2022-09-26T02:51:56.488Z,99.90
2022-09-26T02:56:50.263Z,99.90
2022-09-26T03:01:42.304Z,99.90
2022-09-26T03:06:29.563Z,99.90
2022-09-26T03:11:18.136Z,99.90
2022-09-26T03:16:03.076Z,99.90
2022-09-26T03:20:46.970Z,99.90
2022-09-26T03:25:31.172Z,99.90
2022-09-26T03:30:17.667Z,99.90
2022-09-26T03:35:01.079Z,99.90
2022-09-26T03:39:44.740Z,99.90
2022-09-26T03:44:28.185Z,99.90
2022-09-26T03:49:13.653Z,99.90
2022-09-26T03:53:57.707Z,99.90
2022-09-26T03:58:41.158Z,99.90
2022-09-26T04:03:24.825Z,99.90
2022-09-26T04:08:10.300Z,99.90
2022-09-26T04:12:53.662Z,99.90
2022-09-26T04:17:37.076Z,99.90
2022-09-26T04:22:20.445Z,99.90
2022-09-26T04:27:06.728Z,99.90
2022-09-26T04:31:51.558Z,99.90
2022-09-26T04:36:34.986Z,99.90
2022-09-26T04:41:20.069Z,99.90
2022-09-26T04:46:09.304Z,99.90
2022-09-26T04:50:52.890Z,99.90
2022-09-26T04:55:36.327Z,99.90
2022-09-26T05:00:19.965Z,99.90
2022-09-26T05:05:06.045Z,99.90
2022-09-26T05:09:49.432Z,99.90
2022-09-26T05:14:35.965Z,99.90
2022-09-26T05:19:20.692Z,99.90
2022-09-26T05:24:22.831Z,99.90
2022-09-26T05:29:08.934Z,99.90
2022-09-26T05:33:53.998Z,99.90
2022-09-26T05:38:37.379Z,99.90
2022-09-26T05:43:22.930Z,99.90
2022-09-26T05:48:07.243Z,99.90
2022-09-26T05:52:50.755Z,99.90
2022-09-26T05:57:34.223Z,99.90
2022-09-26T06:02:21.008Z,99.90
2022-09-26T06:07:04.827Z,99.90
2022-09-26T06:11:48.180Z,99.90
2022-09-26T06:16:31.648Z,99.90
2022-09-26T06:21:18.551Z,99.90
2022-09-26T06:26:02.412Z,99.90
2022-09-26T06:30:45.943Z,99.90
2022-09-26T06:35:29.365Z,99.90
2022-09-26T06:40:14.374Z,99.90
2022-09-26T06:44:57.853Z,99.90
2022-09-26T06:49:41.301Z,99.90
2022-09-26T06:54:24.843Z,99.90
2022-09-26T06:59:09.879Z,99.90
2022-09-26T07:03:54.421Z,99.90
2022-09-26T07:09:01.039Z,99.90
2022-09-26T07:13:41.898Z,99.90
2022-09-26T07:18:27.265Z,99.90
2022-09-26T07:23:12.651Z,99.90
2022-09-26T07:27:56.094Z,99.90
2022-09-26T07:32:39.551Z,99.90
2022-09-26T07:37:24.410Z,99.90
2022-09-26T07:42:08.838Z,99.90
2022-09-26T07:47:09.427Z,99.90
2022-09-26T07:51:56.133Z,99.90
2022-09-26T07:56:42.166Z,99.90
2022-09-26T08:01:26.141Z,99.90
2022-09-26T08:06:10.587Z,99.90
2022-09-26T08:10:54.028Z,99.90
2022-09-26T08:15:38.969Z,99.90
2022-09-26T08:20:22.511Z,99.90
2022-09-26T08:25:07.423Z,99.90
2022-09-26T08:29:51.243Z,99.90
2022-09-26T08:34:36.806Z,99.90
2022-09-26T08:39:20.173Z,99.90
2022-09-26T08:44:17.138Z,99.90
2022-09-26T08:49:39.229Z,99.90
2022-09-26T08:54:35.348Z,99.90
2022-09-26T08:59:26.999Z,99.90
2022-09-26T09:04:16.047Z,99.90
2022-09-26T09:09:00.163Z,99.90
2022-09-26T09:13:58.292Z,99.90
2022-09-26T09:18:49.097Z,99.90
2022-09-26T09:23:47.938Z,99.90
2022-09-26T09:28:44.036Z,99.90
2022-09-26T09:33:33.420Z,99.90
2022-09-26T09:38:19.392Z,99.90
2022-09-26T09:43:06.492Z,99.90
2022-09-26T09:47:49.934Z,99.90
2022-09-26T09:52:57.353Z,99.90
2022-09-26T09:57:57.864Z,99.90
2022-09-26T10:02:48.448Z,99.90
2022-09-26T10:07:31.996Z,99.90
2022-09-26T10:12:20.246Z,99.90
2022-09-26T10:17:19.716Z,99.90
2022-09-26T10:22:03.184Z,99.90
2022-09-26T10:26:47.394Z,99.90
2022-09-26T10:31:42.217Z,99.90
2022-09-26T10:36:31.912Z,99.90
2022-09-26T10:41:25.239Z,99.90
2022-09-26T10:46:12.212Z,99.90
2022-09-26T10:51:02.038Z,99.90
2022-09-26T10:55:49.766Z,99.90
2022-09-26T11:00:40.264Z,99.90
2022-09-26T11:05:43.495Z,99.90
2022-09-26T11:10:34.255Z,99.90
2022-09-26T11:15:17.715Z,99.90
2022-09-26T11:20:04.123Z,99.90
2022-09-26T11:24:52.904Z,99.90
2022-09-26T11:29:45.141Z,99.90
2022-09-26T11:34:32.513Z,99.90
2022-09-26T11:39:33.699Z,99.90
2022-09-26T11:44:38.252Z,99.90
2022-09-26T11:49:39.799Z,99.90
2022-09-26T11:54:51.555Z,99.90
2022-09-26T11:59:55.621Z,99.90
2022-09-26T12:05:05.934Z,99.90
2022-09-26T12:10:19.676Z,99.90
2022-09-26T12:15:15.104Z,99.90
2022-09-26T12:20:15.096Z,99.90
2022-09-26T12:25:24.335Z,99.90
2022-09-26T12:30:12.658Z,99.90
2022-09-26T12:35:15.005Z,99.90
2022-09-26T12:40:14.753Z,99.90
2022-09-26T12:45:35.460Z,99.90
2022-09-26T12:50:31.603Z,99.90
2022-09-26T12:55:24.530Z,99.90
2022-09-26T13:00:20.919Z,98.80
2022-09-26T13:05:28.004Z,99.10
2022-09-26T13:10:28.151Z,99.30
2022-09-26T13:15:24.406Z,99.90
2022-09-26T13:20:15.243Z,99.90
2022-09-26T13:25:08.132Z,99.90
2022-09-26T13:30:00.742Z,99.90
2022-09-26T13:34:48.010Z,99.90
2022-09-26T13:39:41.994Z,99.70
2022-09-26T13:44:40.761Z,99.10
2022-09-26T13:49:34.881Z,99.90
2022-09-26T13:54:27.199Z,99.90
2022-09-26T13:59:42.476Z,99.90
2022-09-26T14:04:36.138Z,99.90
2022-09-26T14:09:28.828Z,99.30
2022-09-26T14:14:39.889Z,96.10
2022-09-26T14:19:31.584Z,92.70
2022-09-26T14:24:47.368Z,91.80
2022-09-26T14:29:38.419Z,90.20
2022-09-26T14:34:24.382Z,88.00
2022-09-26T14:39:08.156Z,86.20
2022-09-26T14:43:53.574Z,88.90
2022-09-26T14:48:39.619Z,93.50
2022-09-26T14:53:34.574Z,97.30
2022-09-26T14:58:18.943Z,99.90
2022-09-26T15:03:07.494Z,99.90
2022-09-26T15:07:53.267Z,99.90
2022-09-26T15:12:42.773Z,99.90
2022-09-26T15:17:30.548Z,99.90
2022-09-26T15:22:19.719Z,99.90
2022-09-26T15:27:10.377Z,99.90
2022-09-26T15:31:56.362Z,99.90
2022-09-26T15:36:43.015Z,99.90
2022-09-26T15:41:45.268Z,99.90
2022-09-26T15:46:29.421Z,99.90
2022-09-26T15:51:19.632Z,99.90
2022-09-26T15:56:06.801Z,99.90
2022-09-26T16:00:54.292Z,99.90
2022-09-26T16:05:37.908Z,99.90
2022-09-26T16:10:25.378Z,99.90
2022-09-26T16:15:17.096Z,99.90
2022-09-26T16:20:06.375Z,99.90
2022-09-26T16:24:51.835Z,99.90
2022-09-26T16:29:38.486Z,99.90
2022-09-26T16:34:23.609Z,99.90
2022-09-26T16:39:20.477Z,99.90
2022-09-26T16:44:08.696Z,99.90
2022-09-26T16:48:56.147Z,99.90
2022-09-26T16:53:39.557Z,99.90
2022-09-26T16:58:25.984Z,99.90
2022-09-26T17:03:22.200Z,99.90
2022-09-26T17:08:06.394Z,99.90
2022-09-26T17:12:51.647Z,99.90
2022-09-26T17:17:36.774Z,99.90
2022-09-26T17:22:21.898Z,99.90
2022-09-26T17:27:08.865Z,99.90
2022-09-26T17:31:54.158Z,99.90
2022-09-26T17:36:39.344Z,99.90
2022-09-26T17:41:27.358Z,99.90
2022-09-26T17:46:15.370Z,99.90
2022-09-26T17:51:02.338Z,99.90
2022-09-26T17:55:47.345Z,99.90
2022-09-26T18:00:38.995Z,99.90
2022-09-26T18:05:25.567Z,99.90
2022-09-26T18:10:19.507Z,99.90
2022-09-26T18:15:05.479Z,99.90
2022-09-26T18:19:50.761Z,99.90
2022-09-26T18:24:35.236Z,99.90
2022-09-26T18:29:25.324Z,99.90
2022-09-26T18:34:16.446Z,99.90
2022-09-26T18:39:00.197Z,99.90
2022-09-26T18:43:44.204Z,99.90
2022-09-26T18:48:32.170Z,99.90
2022-09-26T18:53:20.077Z,99.90
2022-09-26T18:58:21.055Z,99.90
2022-09-26T19:03:05.152Z,99.90
2022-09-26T19:07:49.109Z,99.90
2022-09-26T19:12:39.153Z,99.90
2022-09-26T19:17:22.856Z,99.90
2022-09-26T19:22:10.556Z,99.90
2022-09-26T19:26:58.727Z,99.90
2022-09-26T19:31:44.412Z,99.90
2022-09-26T19:36:27.805Z,99.90
2022-09-26T19:41:11.452Z,99.90
2022-09-26T19:45:56.153Z,99.90
2022-09-26T19:50:42.807Z,99.90
2022-09-26T19:55:28.877Z,99.90
2022-09-26T20:00:13.907Z,99.90
2022-09-26T20:04:57.398Z,99.90
2022-09-26T20:09:42.455Z,99.90
2022-09-26T20:14:26.254Z,99.90
2022-09-26T20:19:17.630Z,99.90
2022-09-26T20:24:02.124Z,99.90
2022-09-26T20:28:47.009Z,99.90
2022-09-26T20:33:30.521Z,99.90
2022-09-26T20:38:19.760Z,99.90
2022-09-26T20:43:08.200Z,99.90
2022-09-26T20:47:53.002Z,99.90
2022-09-26T20:52:36.644Z,99.90
2022-09-26T20:57:22.491Z,99.90
2022-09-26T21:02:30.254Z,99.90
2022-09-26T21:07:17.399Z,99.90
2022-09-26T21:12:02.798Z,99.90
2022-09-26T21:16:51.588Z,99.90
2022-09-26T21:21:36.306Z,99.90
2022-09-26T21:26:23.059Z,99.90
2022-09-26T21:31:08.336Z,99.90
2022-09-26T21:35:53.061Z,99.90
2022-09-26T21:40:41.263Z,99.90
2022-09-26T21:45:27.920Z,99.90
2022-09-26T21:50:13.347Z,99.90
2022-09-26T21:55:00.264Z,99.90
2022-09-26T21:59:45.068Z,99.90
2022-09-26T22:04:30.104Z,99.90
2022-09-26T22:09:13.587Z,99.90
2022-09-26T22:13:57.025Z,99.90
2022-09-26T22:18:41.288Z,99.90
2022-09-26T22:23:26.227Z,99.90
2022-09-26T22:28:09.634Z,99.90
2022-09-26T22:32:53.061Z,99.90
2022-09-26T22:37:36.482Z,99.90
2022-09-26T22:42:21.263Z,99.90
2022-09-26T22:47:04.855Z,99.90
2022-09-26T22:51:48.338Z,99.90
2022-09-26T22:56:32.178Z,99.90
2022-09-26T23:01:19.660Z,99.90
2022-09-26T23:06:03.528Z,99.90
2022-09-26T23:10:50.310Z,99.90
2022-09-26T23:15:34.240Z,99.90
2022-09-26T23:20:19.130Z,99.90
2022-09-26T23:25:02.533Z,99.90
2022-09-26T23:29:45.940Z,99.90
2022-09-26T23:34:29.434Z,99.90
2022-09-26T23:39:14.461Z,99.90
2022-09-26T23:43:58.083Z,99.90
2022-09-26T23:48:41.726Z,99.90
2022-09-26T23:53:25.307Z,99.90
2022-09-26T23:58:10.701Z,99.90
